Boston, MA - BOS

Welcome to Boston

Boston Logan International Airport is home to American Airline's morst Northeastern Crew Base. Logan provides an easy connection between many cities in the Northeastern United States to all of the other hubs in the AAG system as well as a few select international destinations. American Airlines makes up just under 20% of the passenger share out of BOS.

BOS Based Pilots: 36   Miles to BOS: 109256
Flights from BOS: 181   Total Hours: 649.62
Routes using BOS: 444   From BOS: 360.86
Total Miles: 226679   Hours To BOS: 288.76
Miles from BOS: 117423   BOS Charts: Click Here
VATSIM METAR: KBOS 272154Z 22019G24KT 10SM SCT036 SCT220 OVC250 26/17 A2984 RMK AO2 PK WND 22028/2143 SLP103 T02560172 $
 
         
View More: Click Here
   

 

Like what you see and ready to join the team?

A rewarding and memorable virtual airline experience awaits!